Andre Malraux — FLVA — position and weather

sailwx.info

Track history (hours):
 
Tides and Currents Weather Stations Pressure Air Temp Water Temp Dewpoint Dewpoint Depression Visibility Wind Speed Wind Dir Waves Ship Positions

Andre Malraux

Last reported at 2018-Jul-20 09:58 UTC. Time now 2018-Jul-21 17:40 UTC.
Position N 47°58' W 004°40'.

Length 35 m; draft 3.2 m.

Type: Ship. MMSI: 228353900.

Date/timePositionNaut miles runAvg speedWind from/ knotsBaromVisibWave heightAir tempDewpointWater temp
2018-Jul-20 09:58N 47°58' W 004°40'511.4
2018-Jul-20 09:31N 48°02' W 004°46'5 9.8
2018-Jul-20 09:00N 48°07' W 004°44'5 9.9
2018-Jul-20 08:31N 48°11' W 004°43'5 9.5
2018-Jul-20 08:01N 48°16' W 004°40'5 9.2
2018-Jul-20 07:30N 48°19' W 004°35'4 8.1
2018-Jul-20 07:01N 48°21' W 004°30'2 3.3
2018-Jul-20 06:30N 48°23' W 004°29'0 0.0
2018-Jul-20 06:00N 48°23' W 004°29'0 0.0
2018-Jul-20 05:30N 48°23' W 004°29'0 0.0
2018-Jul-20 05:00N 48°23' W 004°29'0 0.0
2018-Jul-20 04:30N 48°23' W 004°29'0 0.0
2018-Jul-20 04:00N 48°23' W 004°29'0 0.0
2018-Jul-20 03:30N 48°23' W 004°29'0 0.0
2018-Jul-20 03:00N 48°23' W 004°29'0 0.0
2018-Jul-20 02:30N 48°23' W 004°29'0 0.0
2018-Jul-20 02:00N 48°23' W 004°29'0 0.0
2018-Jul-20 01:30N 48°23' W 004°29'0 0.0
2018-Jul-20 01:00N 48°23' W 004°29'0 0.0
2018-Jul-20 00:30N 48°23' W 004°29'0 0.0
2018-Jul-20 00:00N 48°23' W 004°29'0 0.0
2018-Jul-19 23:30N 48°23' W 004°29'0 0.0
2018-Jul-19 23:00N 48°23' W 004°29'0 0.0
2018-Jul-19 22:30N 48°23' W 004°29'0 0.0
2018-Jul-19 22:00N 48°23' W 004°29'0 0.0
2018-Jul-19 21:30N 48°23' W 004°29'0 0.0
2018-Jul-19 21:00N 48°23' W 004°29'0 0.0
2018-Jul-19 20:30N 48°23' W 004°29'0 0.0
2018-Jul-19 20:00N 48°23' W 004°29'0 0.0
2018-Jul-19 19:30N 48°23' W 004°29'0 0.0
2018-Jul-19 19:00N 48°23' W 004°29'0 0.0
2018-Jul-19 18:30N 48°23' W 004°29'0 0.0
2018-Jul-19 18:00N 48°23' W 004°29'0 0.0
2018-Jul-19 17:30N 48°23' W 004°29'0 0.0
2018-Jul-19 17:00N 48°23' W 004°29'0 0.0
2018-Jul-19 16:30N 48°23' W 004°29'0 0.0
2018-Jul-19 16:00N 48°23' W 004°29'0 0.0
2018-Jul-19 15:30N 48°23' W 004°29'0 0.0
2018-Jul-19 15:00N 48°23' W 004°29'3 5.2
2018-Jul-19 14:30N 48°20' W 004°30'3 3.1
2018-Jul-19 13:30N 48°20' W 004°35'3 6.0
2018-Jul-19 13:00N 48°19' W 004°39'3 6.8
2018-Jul-19 12:30N 48°18' W 004°44'4 7.1
2018-Jul-19 12:00N 48°17' W 004°49'1 1.8
2018-Jul-19 11:30N 48°17' W 004°51'0 0.1
2018-Jul-19 11:00N 48°17' W 004°50'2 3.5
2018-Jul-19 10:30N 48°17' W 004°48'4 7.9
2018-Jul-19 10:00N 48°18' W 004°42'3 5.9
2018-Jul-19 09:30N 48°19' W 004°38'2 3.6
2018-Jul-19 09:00N 48°20' W 004°36'0 0.0
2018-Jul-19 08:30N 48°20' W 004°36'0 0.3
2018-Jul-19 08:00N 48°20' W 004°36'0 0.2
2018-Jul-19 07:30N 48°20' W 004°36'2 3.6
2018-Jul-19 07:00N 48°21' W 004°34'4 7.3
2018-Jul-19 06:30N 48°23' W 004°29'0 0.0
2018-Jul-19 06:00N 48°23' W 004°29'0 0.0
2018-Jul-19 05:30N 48°23' W 004°29'0 0.0
2018-Jul-19 05:00N 48°23' W 004°29'0 0.0
2018-Jul-19 04:30N 48°23' W 004°29'0 0.0
2018-Jul-19 04:00N 48°23' W 004°29'0 0.0
2018-Jul-19 03:30N 48°23' W 004°29'0 0.0
2018-Jul-19 03:00N 48°23' W 004°29'0 0.0
2018-Jul-19 02:30N 48°23' W 004°29'0 0.0
2018-Jul-19 02:00N 48°23' W 004°29'0 0.0
2018-Jul-19 01:30N 48°23' W 004°29'0 0.0
2018-Jul-19 01:00N 48°23' W 004°29'0 0.0
2018-Jul-19 00:30N 48°23' W 004°29'0 0.0
2018-Jul-19 00:00N 48°23' W 004°29'0 0.0
2018-Jul-18 23:30N 48°23' W 004°29'0 0.0
2018-Jul-18 23:00N 48°23' W 004°29'0 0.0
2018-Jul-18 22:30N 48°23' W 004°29'0 0.0
2018-Jul-18 22:00N 48°23' W 004°29'0 0.0
2018-Jul-18 21:30N 48°23' W 004°29'0 0.0
2018-Jul-18 20:57N 48°23' W 004°29'0 0.0
2018-Jul-18 20:30N 48°23' W 004°29'0 0.0
2018-Jul-18 20:00N 48°23' W 004°29'0 0.0
2018-Jul-18 19:30N 48°23' W 004°29'0 0.0
2018-Jul-18 19:00N 48°23' W 004°29'0 0.0
2018-Jul-18 18:30N 48°23' W 004°29'0 0.0
2018-Jul-18 18:00N 48°23' W 004°29'0 0.0
2018-Jul-18 17:30N 48°23' W 004°29'0 0.0
2018-Jul-18 17:00N 48°23' W 004°29'0 0.0
2018-Jul-18 16:30N 48°23' W 004°29'0 0.0
2018-Jul-18 16:00N 48°23' W 004°29'1 2.8
2018-Jul-18 15:30N 48°22' W 004°30'4 8.8
2018-Jul-18 15:00N 48°20' W 004°36'5 9.4
2018-Jul-18 14:30N 48°19' W 004°43'1 0.5
2018-Jul-18 13:30N 48°19' W 004°44'0 0.0
2018-Jul-18 13:00N 48°19' W 004°44'0 0.1
2018-Jul-18 12:30N 48°19' W 004°44'2 3.3
2018-Jul-18 12:00N 48°19' W 004°47'1 2.4
2018-Jul-18 11:30N 48°19' W 004°48'1 1.3
2018-Jul-18 10:30N 48°19' W 004°47'0 0.6
2018-Jul-18 10:01N 48°19' W 004°47'3 5.9
2018-Jul-18 09:30N 48°18' W 004°43'3 5.8
2018-Jul-18 08:58N 48°17' W 004°39'0 0.0
2018-Jul-18 08:28N 48°17' W 004°39'0 0.0
2018-Jul-18 07:58N 48°17' W 004°39'0 0.2
2018-Jul-18 07:28N 48°17' W 004°38'0 0.0
2018-Jul-18 07:00N 48°17' W 004°38'4 8.2
2018-Jul-18 06:30N 48°20' W 004°35'4 8.1
2018-Jul-18 06:01N 48°22' W 004°30'1 1.9
2018-Jul-18 05:28N 48°23' W 004°29'0 0.0
2018-Jul-18 04:58N 48°23' W 004°29'0 0.0
2018-Jul-18 04:28N 48°23' W 004°29'0 0.0
2018-Jul-18 03:58N 48°23' W 004°29'0 0.0
2018-Jul-18 03:28N 48°23' W 004°29'0 0.0
2018-Jul-18 02:58N 48°23' W 004°29'0 0.0
2018-Jul-18 02:28N 48°23' W 004°29'0 0.0
2018-Jul-18 01:58N 48°23' W 004°29'0 0.0
2018-Jul-18 01:28N 48°23' W 004°29'0 0.0
2018-Jul-18 00:58N 48°23' W 004°29'0 0.0
2018-Jul-18 00:28N 48°23' W 004°29'0 0.0
2018-Jul-17 23:58N 48°23' W 004°29'0 0.0
2018-Jul-17 23:28N 48°23' W 004°29'0 0.0
2018-Jul-17 22:58N 48°23' W 004°29'0 0.0
2018-Jul-17 22:28N 48°23' W 004°29'0 0.0
2018-Jul-17 21:58N 48°23' W 004°29'0 0.0
2018-Jul-17 21:28N 48°23' W 004°29'0 0.0
2018-Jul-17 20:58N 48°23' W 004°29'0 0.0
2018-Jul-17 20:28N 48°23' W 004°29'0 0.0
2018-Jul-17 19:58N 48°23' W 004°29'0 0.0
2018-Jul-17 19:28N 48°23' W 004°29'0 0.0
2018-Jul-17 18:58N 48°23' W 004°29'0 0.0
2018-Jul-17 18:28N 48°23' W 004°29'0 0.0
2018-Jul-17 17:58N 48°23' W 004°29'0 0.0
2018-Jul-17 17:28N 48°23' W 004°29'0 0.0
2018-Jul-17 16:58N 48°23' W 004°29'0 0.0
2018-Jul-17 16:31N 48°23' W 004°29'3 6.3
2018-Jul-17 16:00N 48°21' W 004°33'3 6.8
2018-Jul-17 15:30N 48°20' W 004°38'2 4.0
2018-Jul-17 15:00N 48°19' W 004°40'2 4.6
2018-Jul-17 14:30N 48°19' W 004°44'0 0.0
2018-Jul-17 14:00N 48°19' W 004°44'0 0.0
2018-Jul-17 13:31N 48°19' W 004°44'0 0.0
2018-Jul-17 13:01N 48°19' W 004°44'0 0.6
2018-Jul-17 12:31N 48°19' W 004°44'3 5.8
2018-Jul-17 12:00N 48°18' W 004°40'2 4.4
2018-Jul-17 11:31N 48°19' W 004°43'1 1.3
2018-Jul-17 11:01N 48°19' W 004°44'0 0.3
2018-Jul-17 10:30N 48°19' W 004°44'0 0.6
2018-Jul-17 10:01N 48°19' W 004°44'2 4.3
2018-Jul-17 09:30N 48°17' W 004°44'3 6.1
2018-Jul-17 09:00N 48°14' W 004°42'2 3.3
2018-Jul-17 08:31N 48°15' W 004°40'2 3.1
2018-Jul-17 08:01N 48°16' W 004°38'0 0.2
2018-Jul-17 07:30N 48°16' W 004°38'4 8.8
2018-Jul-17 07:00N 48°20' W 004°35'4 8.5
2018-Jul-17 06:30N 48°22' W 004°29'1 1.3
2018-Jul-17 05:59N 48°23' W 004°29'0 0.0
2018-Jul-17 05:29N 48°23' W 004°29'0 0.0
2018-Jul-17 04:59N 48°23' W 004°29'0 0.0
2018-Jul-17 04:29N 48°23' W 004°29'0 0.0
2018-Jul-17 03:59N 48°23' W 004°29'0 0.0
2018-Jul-17 03:29N 48°23' W 004°29'0 0.0
2018-Jul-17 02:59N 48°23' W 004°29'0 0.0
2018-Jul-17 02:29N 48°23' W 004°29'0 0.0
2018-Jul-17 01:59N 48°23' W 004°29'0 0.0
2018-Jul-17 01:29N 48°23' W 004°29'0 0.0
2018-Jul-17 00:59N 48°23' W 004°29'0 0.0
2018-Jul-17 00:29N 48°23' W 004°29'0 0.0
2018-Jul-16 23:29N 48°23' W 004°29'0 0.0
2018-Jul-16 22:59N 48°23' W 004°29'0 0.0
2018-Jul-16 22:29N 48°23' W 004°29'0 0.0
2018-Jul-16 21:59N 48°23' W 004°29'0 0.0
2018-Jul-16 21:29N 48°23' W 004°29'0 0.0
2018-Jul-16 20:59N 48°23' W 004°29'0 0.0
2018-Jul-16 20:29N 48°23' W 004°29'0 0.0
2018-Jul-16 19:59N 48°23' W 004°29'0 0.0
2018-Jul-16 19:29N 48°23' W 004°29'0 0.0
2018-Jul-16 18:59N 48°23' W 004°29'0 0.0
2018-Jul-16 18:29N 48°23' W 004°29'0 0.0
2018-Jul-16 17:59N 48°23' W 004°29'0 0.0
2018-Jul-16 17:29N 48°23' W 004°29'0 0.0
2018-Jul-16 16:59N 48°23' W 004°29'0 0.0
2018-Jul-16 16:29N 48°23' W 004°29'0 0.0
2018-Jul-16 15:59N 48°23' W 004°29'0 0.0
2018-Jul-16 15:29N 48°23' W 004°29'0 0.0
2018-Jul-16 14:59N 48°23' W 004°29'0 0.0
2018-Jul-16 14:29N 48°23' W 004°29'1 1.3
2018-Jul-16 14:00N 48°22' W 004°30'1 2.0
2018-Jul-16 13:28N 48°22' W 004°31'0 0.0
2018-Jul-16 12:58N 48°22' W 004°31'0 0.0
2018-Jul-16 12:28N 48°22' W 004°31'2 3.5
2018-Jul-16 11:59N 48°23' W 004°29'0 0.0
2018-Jul-16 11:29N 48°23' W 004°29'0 0.0
2018-Jul-16 10:58N 48°23' W 004°29'0 0.0
2018-Jul-16 10:29N 48°23' W 004°29'0 0.0
2018-Jul-16 09:59N 48°23' W 004°29'0 0.0
2018-Jul-16 09:29N 48°23' W 004°29'0 0.0
2018-Jul-16 08:59N 48°23' W 004°29'0 0.0
2018-Jul-16 08:29N 48°23' W 004°29'0 0.0
2018-Jul-16 07:58N 48°23' W 004°29'0 0.0
2018-Jul-16 07:29N 48°23' W 004°29'0 0.0
2018-Jul-16 06:59N 48°23' W 004°29'0 0.0
2018-Jul-16 06:28N 48°23' W 004°29'0 0.0
2018-Jul-16 05:59N 48°23' W 004°29'0 0.0
2018-Jul-16 05:28N 48°23' W 004°29'0 0.0
2018-Jul-16 04:58N 48°23' W 004°29'0 0.0
2018-Jul-16 04:29N 48°23' W 004°29'0 0.0
2018-Jul-16 03:59N 48°23' W 004°29'0 0.0
2018-Jul-16 03:29N 48°23' W 004°29'0 0.0
2018-Jul-16 02:59N 48°23' W 004°29'0 0.0
2018-Jul-16 02:29N 48°23' W 004°29'0 0.0
2018-Jul-16 01:59N 48°23' W 004°29'0 0.0
2018-Jul-16 01:29N 48°23' W 004°29'0 0.0
2018-Jul-16 00:58N 48°23' W 004°29'0 0.0
2018-Jul-16 00:28N 48°23' W 004°29'0 0.0
2018-Jul-15 23:58N 48°23' W 004°29'0 0.0
2018-Jul-15 23:28N 48°23' W 004°29'0 0.0
2018-Jul-15 22:58N 48°23' W 004°29'0 0.0
2018-Jul-15 22:28N 48°23' W 004°29'0 0.0
2018-Jul-15 21:58N 48°23' W 004°29'0 0.0
2018-Jul-15 21:28N 48°23' W 004°29'0 0.0
2018-Jul-15 20:59N 48°23' W 004°29'0 0.0
2018-Jul-15 20:28N 48°23' W 004°29'0 0.0
2018-Jul-15 19:58N 48°23' W 004°29'0 0.0
2018-Jul-15 19:28N 48°23' W 004°29'0 0.0
2018-Jul-15 18:58N 48°23' W 004°29'0 0.0
2018-Jul-15 18:28N 48°23' W 004°29'0 0.0
2018-Jul-15 17:59N 48°23' W 004°29'0 0.0
2018-Jul-15 17:28N 48°23' W 004°29'0 0.0
2018-Jul-15 16:58N 48°23' W 004°29'0 0.0
2018-Jul-15 16:28N 48°23' W 004°29'0 0.0
2018-Jul-15 15:58N 48°23' W 004°29'0 0.0
2018-Jul-15 15:28N 48°23' W 004°29'0 0.0
2018-Jul-15 14:59N 48°23' W 004°29'0 0.0
2018-Jul-15 14:28N 48°23' W 004°29'0 0.0
2018-Jul-15 13:58N 48°23' W 004°29'0 0.0
2018-Jul-15 13:28N 48°23' W 004°29'0 0.0
2018-Jul-15 12:58N 48°23' W 004°29'0 0.0
2018-Jul-15 12:28N 48°23' W 004°29'0 0.0
2018-Jul-15 11:58N 48°23' W 004°29'0 0.0
2018-Jul-15 11:28N 48°23' W 004°29'0 0.0
2018-Jul-15 10:58N 48°23' W 004°29'0 0.0
2018-Jul-15 10:28N 48°23' W 004°29'0 0.0
2018-Jul-15 09:58N 48°23' W 004°29'0 0.0
2018-Jul-15 09:28N 48°23' W 004°29'0 0.0
2018-Jul-15 08:58N 48°23' W 004°29'0 0.0
2018-Jul-15 08:28N 48°23' W 004°29'0 0.0
2018-Jul-15 07:58N 48°23' W 004°29'0 0.0
2018-Jul-15 07:28N 48°23' W 004°29'0 0.0
2018-Jul-15 06:58N 48°23' W 004°29'0 0.0
2018-Jul-15 06:28N 48°23' W 004°29'0 0.0
2018-Jul-15 05:58N 48°23' W 004°29'0 0.0
2018-Jul-15 05:28N 48°23' W 004°29'0 0.0
2018-Jul-15 04:58N 48°23' W 004°29'0 0.0
2018-Jul-15 04:28N 48°23' W 004°29'0 0.0
2018-Jul-15 03:58N 48°23' W 004°29'0 0.0
2018-Jul-15 03:28N 48°23' W 004°29'0 0.0
2018-Jul-15 02:58N 48°23' W 004°29'0 0.0
2018-Jul-15 02:28N 48°23' W 004°29'0 0.0
2018-Jul-15 01:58N 48°23' W 004°29'0 0.0
2018-Jul-15 01:28N 48°23' W 004°29'0 0.0
2018-Jul-15 00:58N 48°23' W 004°29'0 0.0
2018-Jul-15 00:28N 48°23' W 004°29'0 0.0
2018-Jul-14 23:58N 48°23' W 004°29'0 0.0
2018-Jul-14 23:28N 48°23' W 004°29'0 0.0
2018-Jul-14 22:58N 48°23' W 004°29'0 0.0
2018-Jul-14 22:28N 48°23' W 004°29'0 0.0
2018-Jul-14 21:58N 48°23' W 004°29'0 0.0
2018-Jul-14 21:28N 48°23' W 004°29'0 0.0
2018-Jul-14 20:58N 48°23' W 004°29'0 0.0
2018-Jul-14 20:28N 48°23' W 004°29'0 0.0
2018-Jul-14 19:58N 48°23' W 004°29'0 0.0
2018-Jul-14 19:28N 48°23' W 004°29'0 0.0
2018-Jul-14 18:58N 48°23' W 004°29'0 0.0
2018-Jul-14 18:28N 48°23' W 004°29'0 0.0
2018-Jul-14 17:58N 48°23' W 004°29'0 0.0
2018-Jul-14 17:28N 48°23' W 004°29'0 0.0
2018-Jul-14 16:58N 48°23' W 004°29'0 0.0
2018-Jul-14 16:28N 48°23' W 004°29'0 0.0
2018-Jul-14 15:58N 48°23' W 004°29'0 0.0
2018-Jul-14 15:28N 48°23' W 004°29'0 0.0
2018-Jul-14 14:58N 48°23' W 004°29'0 0.0
2018-Jul-14 14:28N 48°23' W 004°29'0 0.0
2018-Jul-14 13:28N 48°23' W 004°29'0 0.0
2018-Jul-14 12:58N 48°23' W 004°29'0 0.0
2018-Jul-14 12:28N 48°23' W 004°29'0 0.0
2018-Jul-14 11:58N 48°23' W 004°29'0 0.0
2018-Jul-14 11:28N 48°23' W 004°29'0 0.0
2018-Jul-14 10:58N 48°23' W 004°29'0 0.0
2018-Jul-14 10:28N 48°23' W 004°29'0 0.0
2018-Jul-14 09:58N 48°23' W 004°29'0 0.0
2018-Jul-14 09:28N 48°23' W 004°29'0 0.0
2018-Jul-14 08:58N 48°23' W 004°29'0 0.0
2018-Jul-14 08:28N 48°23' W 004°29'0 0.0
2018-Jul-14 07:58N 48°23' W 004°29'0 0.0
2018-Jul-14 07:28N 48°23' W 004°29'0 0.0
2018-Jul-14 06:58N 48°23' W 004°29'0 0.0
2018-Jul-14 06:28N 48°23' W 004°29'0 0.0
2018-Jul-14 05:58N 48°23' W 004°29'0 0.0
2018-Jul-14 05:28N 48°23' W 004°29'0 0.0
2018-Jul-14 04:58N 48°23' W 004°29'0 0.0
2018-Jul-14 04:28N 48°23' W 004°29'0 0.0
2018-Jul-14 03:58N 48°23' W 004°29'0 0.0
2018-Jul-14 03:28N 48°23' W 004°29'0 0.0
2018-Jul-14 02:58N 48°23' W 004°29'0 0.0
2018-Jul-14 02:28N 48°23' W 004°29'0 0.0
2018-Jul-14 01:58N 48°23' W 004°29'0 0.0
2018-Jul-14 01:28N 48°23' W 004°29'0 0.0
2018-Jul-14 00:58N 48°23' W 004°29'0 0.0
2018-Jul-14 00:28N 48°23' W 004°29'0 0.0
2018-Jul-13 23:58N 48°23' W 004°29'0 0.0
2018-Jul-13 23:28N 48°23' W 004°29'0 0.0
2018-Jul-13 22:58N 48°23' W 004°29'0 0.0
2018-Jul-13 22:28N 48°23' W 004°29'0 0.0
2018-Jul-13 21:58N 48°23' W 004°29'0 0.0
2018-Jul-13 21:28N 48°23' W 004°29'0 0.0
2018-Jul-13 20:58N 48°23' W 004°29'0 0.0
2018-Jul-13 20:28N 48°23' W 004°29'0 0.0
2018-Jul-13 19:58N 48°23' W 004°29'0 0.0
2018-Jul-13 19:28N 48°23' W 004°29'0 0.0
2018-Jul-13 18:58N 48°23' W 004°29'0 0.0
2018-Jul-13 18:28N 48°23' W 004°29'0 0.0
2018-Jul-13 17:58N 48°23' W 004°29'0 0.0
2018-Jul-13 17:28N 48°23' W 004°29'0 0.0
2018-Jul-13 17:00N 48°23' W 004°29'0 0.0
2018-Jul-13 16:30N 48°23' W 004°29'1 1.9
2018-Jul-13 16:00N 48°22' W 004°29'510.1
2018-Jul-13 15:30N 48°20' W 004°36'1 2.0
2018-Jul-13 15:00N 48°19' W 004°37'1 1.1
2018-Jul-13 14:30N 48°19' W 004°38'1 0.5
2018-Jul-13 13:30N 48°20' W 004°37'0 0.0
2018-Jul-13 10:37N 48°20' W 004°37'0 1.2
2018-Jul-13 10:30N 48°20' W 004°37'1 2.8
2018-Jul-13 10:00N 48°19' W 004°39'1 1.9
2018-Jul-13 09:30N 48°18' W 004°38'0 0.4
2018-Jul-13 09:01N 48°18' W 004°38'0 0.3
2018-Jul-13 08:30N 48°18' W 004°38'1 1.4
2018-Jul-13 08:00N 48°18' W 004°38'0 0.7
2018-Jul-13 07:30N 48°17' W 004°39'2 5.0
2018-Jul-13 07:00N 48°19' W 004°36'5 9.8
2018-Jul-13 06:30N 48°22' W 004°30'1 2.6
2018-Jul-13 05:59N 48°23' W 004°29'0 0.0
2018-Jul-13 05:28N 48°23' W 004°29'0 0.0
2018-Jul-13 04:59N 48°23' W 004°29'0 0.0
2018-Jul-13 04:29N 48°23' W 004°29'0 0.0
2018-Jul-13 03:59N 48°23' W 004°29'0 0.0
2018-Jul-13 03:28N 48°23' W 004°29'0 0.0
2018-Jul-13 02:59N 48°23' W 004°29'0 0.0
2018-Jul-13 02:29N 48°23' W 004°29'0 0.0
2018-Jul-13 01:59N 48°23' W 004°29'0 0.0
2018-Jul-13 01:29N 48°23' W 004°29'0 0.0
2018-Jul-13 00:59N 48°23' W 004°29'0 0.0
2018-Jul-13 00:29N 48°23' W 004°29'0 0.0
2018-Jul-12 23:59N 48°23' W 004°29'0 0.0
2018-Jul-12 23:28N 48°23' W 004°29'0 0.0
2018-Jul-12 22:59N 48°23' W 004°29'0 0.0
2018-Jul-12 22:28N 48°23' W 004°29'0 0.0
2018-Jul-12 21:58N 48°23' W 004°29'0 0.0
2018-Jul-12 21:28N 48°23' W 004°29'0 0.0
2018-Jul-12 20:58N 48°23' W 004°29'0 0.0
2018-Jul-12 20:28N 48°23' W 004°29'0 0.0
2018-Jul-12 19:59N 48°23' W 004°29'0 0.0
2018-Jul-12 19:28N 48°23' W 004°29'0 0.0
2018-Jul-12 18:58N 48°23' W 004°29'0 0.0
2018-Jul-12 18:29N 48°23' W 004°29'0 0.0
2018-Jul-12 17:59N 48°23' W 004°29'0 0.0
2018-Jul-12 17:29N 48°23' W 004°29'0 0.0
2018-Jul-12 16:58N 48°23' W 004°29'1 2.7
2018-Jul-12 16:30N 48°22' W 004°30'4 8.6
2018-Jul-12 16:01N 48°20' W 004°36'1 1.9
2018-Jul-12 15:30N 48°19' W 004°37'0 1.0
2018-Jul-12 15:01N 48°20' W 004°36'1 1.3
2018-Jul-12 14:31N 48°19' W 004°37'1 1.8
2018-Jul-12 14:00N 48°20' W 004°36'0 0.1
2018-Jul-12 10:09N 48°20' W 004°36'0 3.1
2018-Jul-12 10:00N 48°20' W 004°35'2 4.0
2018-Jul-12 09:31N 48°19' W 004°38'2 3.7
2018-Jul-12 09:01N 48°20' W 004°35'2 3.9
2018-Jul-12 08:31N 48°19' W 004°38'2 4.1
2018-Jul-12 08:00N 48°20' W 004°35'2 3.2
2018-Jul-12 07:30N 48°19' W 004°37'1 2.1
2018-Jul-12 07:00N 48°20' W 004°37'4 8.3
2018-Jul-12 06:31N 48°22' W 004°31'2 3.5
2018-Jul-12 05:59N 48°23' W 004°29'0 0.0
2018-Jul-12 05:29N 48°23' W 004°29'0 0.0
2018-Jul-12 04:59N 48°23' W 004°29'0 0.0
2018-Jul-12 04:29N 48°23' W 004°29'0 0.0
2018-Jul-12 03:59N 48°23' W 004°29'0 0.0
2018-Jul-12 03:29N 48°23' W 004°29'0 0.0
2018-Jul-12 02:59N 48°23' W 004°29'0 0.0
2018-Jul-12 02:29N 48°23' W 004°29'0 0.0
2018-Jul-12 01:59N 48°23' W 004°29'0 0.0
2018-Jul-12 01:29N 48°23' W 004°29'0 0.0
2018-Jul-12 00:59N 48°23' W 004°29'0 0.0
2018-Jul-12 00:29N 48°23' W 004°29'0 0.0
2018-Jul-11 23:59N 48°23' W 004°29'0 0.0
2018-Jul-11 23:29N 48°23' W 004°29'0 0.0
2018-Jul-11 22:59N 48°23' W 004°29'0 0.0
2018-Jul-11 22:29N 48°23' W 004°29'0 0.0
2018-Jul-11 21:59N 48°23' W 004°29'0 0.0
2018-Jul-11 21:29N 48°23' W 004°29'0 0.0
2018-Jul-11 20:59N 48°23' W 004°29'0 0.0
2018-Jul-11 20:29N 48°23' W 004°29'0 0.0
2018-Jul-11 19:59N 48°23' W 004°29'0 0.0
2018-Jul-11 19:29N 48°23' W 004°29'0 0.0
2018-Jul-11 18:59N 48°23' W 004°29'0 0.0
2018-Jul-11 18:29N 48°23' W 004°29'0 0.0
2018-Jul-11 17:59N 48°23' W 004°29'0 0.0
2018-Jul-11 17:30N 48°23' W 004°29'0 0.0
2018-Jul-11 17:00N 48°23' W 004°29'1 2.9
2018-Jul-11 16:30N 48°22' W 004°30'3 6.6
2018-Jul-11 16:00N 48°21' W 004°35'3 6.9
2018-Jul-11 15:30N 48°18' W 004°39'0 0.4
2018-Jul-11 15:00N 48°19' W 004°39'2 4.0
2018-Jul-11 14:30N 48°20' W 004°37'0 0.0
2018-Jul-11 14:00N 48°20' W 004°37'0 0.4
2018-Jul-11 13:30N 48°20' W 004°36'0 0.1
2018-Jul-11 13:01N 48°20' W 004°36'0 0.4
2018-Jul-11 12:30N 48°20' W 004°36'2 3.2
2018-Jul-11 12:00N 48°19' W 004°38'1 0.2
2018-Jul-11 09:33N 48°19' W 004°38'0 0.2
2018-Jul-11 09:30N 48°19' W 004°38'0 0.8
2018-Jul-11 09:00N 48°19' W 004°38'1 1.1
2018-Jul-11 08:30N 48°20' W 004°38'0 0.7
2018-Jul-11 08:00N 48°19' W 004°38'1 2.0
2018-Jul-11 07:30N 48°20' W 004°37'4 8.5
2018-Jul-11 07:00N 48°22' W 004°31'2 3.8
2018-Jul-11 06:30N 48°23' W 004°29'0 0.0
2018-Jul-11 06:00N 48°23' W 004°29'0 0.0
2018-Jul-11 05:30N 48°23' W 004°29'0 0.0
2018-Jul-11 05:00N 48°23' W 004°29'0 0.0
2018-Jul-11 04:30N 48°23' W 004°29'0 0.0
2018-Jul-11 04:00N 48°23' W 004°29'0 0.0
2018-Jul-11 03:30N 48°23' W 004°29'0 0.0
2018-Jul-11 03:00N 48°23' W 004°29'0 0.0
2018-Jul-11 02:30N 48°23' W 004°29'0 0.0
2018-Jul-11 02:00N 48°23' W 004°29'0 0.0
2018-Jul-11 01:30N 48°23' W 004°29'0 0.0
2018-Jul-11 01:00N 48°23' W 004°29'0 0.0
2018-Jul-11 00:30N 48°23' W 004°29'0 0.0
2018-Jul-11 00:00N 48°23' W 004°29'0 0.0
2018-Jul-10 23:30N 48°23' W 004°29'0 0.0
2018-Jul-10 23:00N 48°23' W 004°29'0 0.0
2018-Jul-10 22:30N 48°23' W 004°29'0 0.0
2018-Jul-10 22:00N 48°23' W 004°29'0 0.0
2018-Jul-10 21:30N 48°23' W 004°29'0 0.0
2018-Jul-10 20:59N 48°23' W 004°29'0 0.0
2018-Jul-10 20:29N 48°23' W 004°29'0 0.0
2018-Jul-10 20:00N 48°23' W 004°29'0 0.0
2018-Jul-10 19:29N 48°23' W 004°29'0 0.0
2018-Jul-10 19:00N 48°23' W 004°29'0 0.0
2018-Jul-10 18:29N 48°23' W 004°29'0 0.0
2018-Jul-10 17:59N 48°23' W 004°29'0 0.0
2018-Jul-10 17:30N 48°23' W 004°29'0 0.5
2018-Jul-10 17:00N 48°23' W 004°29'4 7.6
2018-Jul-10 16:30N 48°21' W 004°34'3 5.7
2018-Jul-10 16:00N 48°20' W 004°38'0 0.7
2018-Jul-10 15:30N 48°19' W 004°38'0 0.4
2018-Jul-10 15:00N 48°19' W 004°38'0 0.7
2018-Jul-10 14:30N 48°19' W 004°38'1 1.6
2018-Jul-10 14:00N 48°20' W 004°38'1 1.4
2018-Jul-10 13:30N 48°19' W 004°38'0 0.7
2018-Jul-10 13:00N 48°20' W 004°38'0 0.1
2018-Jul-10 12:30N 48°20' W 004°38'0 0.9
2018-Jul-10 12:00N 48°19' W 004°38'0 0.6
2018-Jul-10 11:30N 48°19' W 004°38'0 0.4
2018-Jul-10 11:00N 48°19' W 004°38'  
Track history (hours):
 
Tides and Currents Weather Stations Pressure Air Temp Water Temp Dewpoint Dewpoint Depression Visibility Wind Speed Wind Dir Waves Ship Positions

Andre Malraux

Last reported at 2018-Jul-20 09:58 UTC. Time now 2018-Jul-21 17:40 UTC.
Position N 47°58' W 004°40'.

Length 35 m; draft 3.2 m.

Type: Ship. MMSI: 228353900.

Date/timePositionNaut miles runAvg speedWind from/ knotsBaromVisibWave heightAir tempDewpointWater temp
2018-Jul-20 09:58N 47°58' W 004°40'511.4
2018-Jul-20 09:31N 48°02' W 004°46'5 9.8
2018-Jul-20 09:00N 48°07' W 004°44'5 9.9
2018-Jul-20 08:31N 48°11' W 004°43'5 9.5
2018-Jul-20 08:01N 48°16' W 004°40'5 9.2
2018-Jul-20 07:30N 48°19' W 004°35'4 8.1
2018-Jul-20 07:01N 48°21' W 004°30'2 3.3
2018-Jul-20 06:30N 48°23' W 004°29'0 0.0
2018-Jul-20 06:00N 48°23' W 004°29'0 0.0
2018-Jul-20 05:30N 48°23' W 004°29'0 0.0
2018-Jul-20 05:00N 48°23' W 004°29'0 0.0
2018-Jul-20 04:30N 48°23' W 004°29'0 0.0
2018-Jul-20 04:00N 48°23' W 004°29'0 0.0
2018-Jul-20 03:30N 48°23' W 004°29'0 0.0
2018-Jul-20 03:00N 48°23' W 004°29'0 0.0
2018-Jul-20 02:30N 48°23' W 004°29'0 0.0
2018-Jul-20 02:00N 48°23' W 004°29'0 0.0
2018-Jul-20 01:30N 48°23' W 004°29'0 0.0
2018-Jul-20 01:00N 48°23' W 004°29'0 0.0
2018-Jul-20 00:30N 48°23' W 004°29'0 0.0
2018-Jul-20 00:00N 48°23' W 004°29'0 0.0
2018-Jul-19 23:30N 48°23' W 004°29'0 0.0
2018-Jul-19 23:00N 48°23' W 004°29'0 0.0
2018-Jul-19 22:30N 48°23' W 004°29'0 0.0
2018-Jul-19 22:00N 48°23' W 004°29'0 0.0
2018-Jul-19 21:30N 48°23' W 004°29'0 0.0
2018-Jul-19 21:00N 48°23' W 004°29'0 0.0
2018-Jul-19 20:30N 48°23' W 004°29'0 0.0
2018-Jul-19 20:00N 48°23' W 004°29'0 0.0
2018-Jul-19 19:30N 48°23' W 004°29'0 0.0
2018-Jul-19 19:00N 48°23' W 004°29'0 0.0
2018-Jul-19 18:30N 48°23' W 004°29'0 0.0
2018-Jul-19 18:00N 48°23' W 004°29'0 0.0
2018-Jul-19 17:30N 48°23' W 004°29'0 0.0
2018-Jul-19 17:00N 48°23' W 004°29'0 0.0
2018-Jul-19 16:30N 48°23' W 004°29'0 0.0
2018-Jul-19 16:00N 48°23' W 004°29'0 0.0
2018-Jul-19 15:30N 48°23' W 004°29'0 0.0
2018-Jul-19 15:00N 48°23' W 004°29'3 5.2
2018-Jul-19 14:30N 48°20' W 004°30'3 3.1
2018-Jul-19 13:30N 48°20' W 004°35'3 6.0
2018-Jul-19 13:00N 48°19' W 004°39'3 6.8
2018-Jul-19 12:30N 48°18' W 004°44'4 7.1
2018-Jul-19 12:00N 48°17' W 004°49'1 1.8
2018-Jul-19 11:30N 48°17' W 004°51'0 0.1
2018-Jul-19 11:00N 48°17' W 004°50'2 3.5
2018-Jul-19 10:30N 48°17' W 004°48'4 7.9
2018-Jul-19 10:00N 48°18' W 004°42'3 5.9
2018-Jul-19 09:30N 48°19' W 004°38'2 3.6
2018-Jul-19 09:00N 48°20' W 004°36'0 0.0
2018-Jul-19 08:30N 48°20' W 004°36'0 0.3
2018-Jul-19 08:00N 48°20' W 004°36'0 0.2
2018-Jul-19 07:30N 48°20' W 004°36'2 3.6
2018-Jul-19 07:00N 48°21' W 004°34'4 7.3
2018-Jul-19 06:30N 48°23' W 004°29'0 0.0
2018-Jul-19 06:00N 48°23' W 004°29'0 0.0
2018-Jul-19 05:30N 48°23' W 004°29'0 0.0
2018-Jul-19 05:00N 48°23' W 004°29'0 0.0
2018-Jul-19 04:30N 48°23' W 004°29'0 0.0
2018-Jul-19 04:00N 48°23' W 004°29'0 0.0
2018-Jul-19 03:30N 48°23' W 004°29'0 0.0
2018-Jul-19 03:00N 48°23' W 004°29'0 0.0
2018-Jul-19 02:30N 48°23' W 004°29'0 0.0
2018-Jul-19 02:00N 48°23' W 004°29'0 0.0
2018-Jul-19 01:30N 48°23' W 004°29'0 0.0
2018-Jul-19 01:00N 48°23' W 004°29'0 0.0
2018-Jul-19 00:30N 48°23' W 004°29'0 0.0
2018-Jul-19 00:00N 48°23' W 004°29'0 0.0
2018-Jul-18 23:30N 48°23' W 004°29'0 0.0
2018-Jul-18 23:00N 48°23' W 004°29'0 0.0
2018-Jul-18 22:30N 48°23' W 004°29'0 0.0
2018-Jul-18 22:00N 48°23' W 004°29'0 0.0
2018-Jul-18 21:30N 48°23' W 004°29'0 0.0
2018-Jul-18 20:57N 48°23' W 004°29'0 0.0
2018-Jul-18 20:30N 48°23' W 004°29'0 0.0
2018-Jul-18 20:00N 48°23' W 004°29'0 0.0
2018-Jul-18 19:30N 48°23' W 004°29'0 0.0
2018-Jul-18 19:00N 48°23' W 004°29'0 0.0
2018-Jul-18 18:30N 48°23' W 004°29'0 0.0
2018-Jul-18 18:00N 48°23' W 004°29'0 0.0
2018-Jul-18 17:30N 48°23' W 004°29'0 0.0
2018-Jul-18 17:00N 48°23' W 004°29'0 0.0
2018-Jul-18 16:30N 48°23' W 004°29'0 0.0
2018-Jul-18 16:00N 48°23' W 004°29'1 2.8
2018-Jul-18 15:30N 48°22' W 004°30'4 8.8
2018-Jul-18 15:00N 48°20' W 004°36'5 9.4
2018-Jul-18 14:30N 48°19' W 004°43'1 0.5
2018-Jul-18 13:30N 48°19' W 004°44'0 0.0
2018-Jul-18 13:00N 48°19' W 004°44'0 0.1
2018-Jul-18 12:30N 48°19' W 004°44'2 3.3
2018-Jul-18 12:00N 48°19' W 004°47'1 2.4
2018-Jul-18 11:30N 48°19' W 004°48'1 1.3
2018-Jul-18 10:30N 48°19' W 004°47'0 0.6
2018-Jul-18 10:01N 48°19' W 004°47'3 5.9
2018-Jul-18 09:30N 48°18' W 004°43'3 5.8
2018-Jul-18 08:58N 48°17' W 004°39'0 0.0
2018-Jul-18 08:28N 48°17' W 004°39'0 0.0
2018-Jul-18 07:58N 48°17' W 004°39'0 0.2
2018-Jul-18 07:28N 48°17' W 004°38'0 0.0
2018-Jul-18 07:00N 48°17' W 004°38'4 8.2
2018-Jul-18 06:30N 48°20' W 004°35'4 8.1
2018-Jul-18 06:01N 48°22' W 004°30'1 1.9
2018-Jul-18 05:28N 48°23' W 004°29'0 0.0
2018-Jul-18 04:58N 48°23' W 004°29'0 0.0
2018-Jul-18 04:28N 48°23' W 004°29'0 0.0
2018-Jul-18 03:58N 48°23' W 004°29'0 0.0
2018-Jul-18 03:28N 48°23' W 004°29'0 0.0
2018-Jul-18 02:58N 48°23' W 004°29'0 0.0
2018-Jul-18 02:28N 48°23' W 004°29'0 0.0
2018-Jul-18 01:58N 48°23' W 004°29'0 0.0
2018-Jul-18 01:28N 48°23' W 004°29'0 0.0
2018-Jul-18 00:58N 48°23' W 004°29'0 0.0
2018-Jul-18 00:28N 48°23' W 004°29'0 0.0
2018-Jul-17 23:58N 48°23' W 004°29'0 0.0
2018-Jul-17 23:28N 48°23' W 004°29'0 0.0
2018-Jul-17 22:58N 48°23' W 004°29'0 0.0
2018-Jul-17 22:28N 48°23' W 004°29'0 0.0
2018-Jul-17 21:58N 48°23' W 004°29'0 0.0
2018-Jul-17 21:28N 48°23' W 004°29'0 0.0
2018-Jul-17 20:58N 48°23' W 004°29'0 0.0
2018-Jul-17 20:28N 48°23' W 004°29'0 0.0
2018-Jul-17 19:58N 48°23' W 004°29'0 0.0
2018-Jul-17 19:28N 48°23' W 004°29'0 0.0
2018-Jul-17 18:58N 48°23' W 004°29'0 0.0
2018-Jul-17 18:28N 48°23' W 004°29'0 0.0
2018-Jul-17 17:58N 48°23' W 004°29'0 0.0
2018-Jul-17 17:28N 48°23' W 004°29'0 0.0
2018-Jul-17 16:58N 48°23' W 004°29'0 0.0
2018-Jul-17 16:31N 48°23' W 004°29'3 6.3
2018-Jul-17 16:00N 48°21' W 004°33'3 6.8
2018-Jul-17 15:30N 48°20' W 004°38'2 4.0
2018-Jul-17 15:00N 48°19' W 004°40'2 4.6
2018-Jul-17 14:30N 48°19' W 004°44'0 0.0
2018-Jul-17 14:00N 48°19' W 004°44'0 0.0
2018-Jul-17 13:31N 48°19' W 004°44'0 0.0
2018-Jul-17 13:01N 48°19' W 004°44'0 0.6
2018-Jul-17 12:31N 48°19' W 004°44'3 5.8
2018-Jul-17 12:00N 48°18' W 004°40'2 4.4
2018-Jul-17 11:31N 48°19' W 004°43'1 1.3
2018-Jul-17 11:01N 48°19' W 004°44'0 0.3
2018-Jul-17 10:30N 48°19' W 004°44'0 0.6
2018-Jul-17 10:01N 48°19' W 004°44'2 4.3
2018-Jul-17 09:30N 48°17' W 004°44'3 6.1
2018-Jul-17 09:00N 48°14' W 004°42'2 3.3
2018-Jul-17 08:31N 48°15' W 004°40'2 3.1
2018-Jul-17 08:01N 48°16' W 004°38'0 0.2
2018-Jul-17 07:30N 48°16' W 004°38'4 8.8
2018-Jul-17 07:00N 48°20' W 004°35'4 8.5
2018-Jul-17 06:30N 48°22' W 004°29'1 1.3
2018-Jul-17 05:59N 48°23' W 004°29'0 0.0
2018-Jul-17 05:29N 48°23' W 004°29'0 0.0
2018-Jul-17 04:59N 48°23' W 004°29'0 0.0
2018-Jul-17 04:29N 48°23' W 004°29'0 0.0
2018-Jul-17 03:59N 48°23' W 004°29'0 0.0
2018-Jul-17 03:29N 48°23' W 004°29'0 0.0
2018-Jul-17 02:59N 48°23' W 004°29'0 0.0
2018-Jul-17 02:29N 48°23' W 004°29'0 0.0
2018-Jul-17 01:59N 48°23' W 004°29'0 0.0
2018-Jul-17 01:29N 48°23' W 004°29'0 0.0
2018-Jul-17 00:59N 48°23' W 004°29'0 0.0
2018-Jul-17 00:29N 48°23' W 004°29'0 0.0
2018-Jul-16 23:29N 48°23' W 004°29'0 0.0
2018-Jul-16 22:59N 48°23' W 004°29'0 0.0
2018-Jul-16 22:29N 48°23' W 004°29'0 0.0
2018-Jul-16 21:59N 48°23' W 004°29'0 0.0
2018-Jul-16 21:29N 48°23' W 004°29'0 0.0
2018-Jul-16 20:59N 48°23' W 004°29'0 0.0
2018-Jul-16 20:29N 48°23' W 004°29'0 0.0
2018-Jul-16 19:59N 48°23' W 004°29'0 0.0
2018-Jul-16 19:29N 48°23' W 004°29'0 0.0
2018-Jul-16 18:59N 48°23' W 004°29'0 0.0
2018-Jul-16 18:29N 48°23' W 004°29'0 0.0
2018-Jul-16 17:59N 48°23' W 004°29'0 0.0
2018-Jul-16 17:29N 48°23' W 004°29'0 0.0
2018-Jul-16 16:59N 48°23' W 004°29'0 0.0
2018-Jul-16 16:29N 48°23' W 004°29'0 0.0
2018-Jul-16 15:59N 48°23' W 004°29'0 0.0
2018-Jul-16 15:29N 48°23' W 004°29'0 0.0
2018-Jul-16 14:59N 48°23' W 004°29'0 0.0
2018-Jul-16 14:29N 48°23' W 004°29'1 1.3
2018-Jul-16 14:00N 48°22' W 004°30'1 2.0
2018-Jul-16 13:28N 48°22' W 004°31'0 0.0
2018-Jul-16 12:58N 48°22' W 004°31'0 0.0
2018-Jul-16 12:28N 48°22' W 004°31'2 3.5
2018-Jul-16 11:59N 48°23' W 004°29'0 0.0
2018-Jul-16 11:29N 48°23' W 004°29'0 0.0
2018-Jul-16 10:58N 48°23' W 004°29'0 0.0
2018-Jul-16 10:29N 48°23' W 004°29'0 0.0
2018-Jul-16 09:59N 48°23' W 004°29'0 0.0
2018-Jul-16 09:29N 48°23' W 004°29'0 0.0
2018-Jul-16 08:59N 48°23' W 004°29'0 0.0
2018-Jul-16 08:29N 48°23' W 004°29'0 0.0
2018-Jul-16 07:58N 48°23' W 004°29'0 0.0
2018-Jul-16 07:29N 48°23' W 004°29'0 0.0
2018-Jul-16 06:59N 48°23' W 004°29'0 0.0
2018-Jul-16 06:28N 48°23' W 004°29'0 0.0
2018-Jul-16 05:59N 48°23' W 004°29'0 0.0
2018-Jul-16 05:28N 48°23' W 004°29'0 0.0
2018-Jul-16 04:58N 48°23' W 004°29'0 0.0
2018-Jul-16 04:29N 48°23' W 004°29'0 0.0
2018-Jul-16 03:59N 48°23' W 004°29'0 0.0
2018-Jul-16 03:29N 48°23' W 004°29'0 0.0
2018-Jul-16 02:59N 48°23' W 004°29'0 0.0
2018-Jul-16 02:29N 48°23' W 004°29'0 0.0
2018-Jul-16 01:59N 48°23' W 004°29'0 0.0
2018-Jul-16 01:29N 48°23' W 004°29'0 0.0
2018-Jul-16 00:58N 48°23' W 004°29'0 0.0
2018-Jul-16 00:28N 48°23' W 004°29'0 0.0
2018-Jul-15 23:58N 48°23' W 004°29'0 0.0
2018-Jul-15 23:28N 48°23' W 004°29'0 0.0
2018-Jul-15 22:58N 48°23' W 004°29'0 0.0
2018-Jul-15 22:28N 48°23' W 004°29'0 0.0
2018-Jul-15 21:58N 48°23' W 004°29'0 0.0
2018-Jul-15 21:28N 48°23' W 004°29'0 0.0
2018-Jul-15 20:59N 48°23' W 004°29'0 0.0
2018-Jul-15 20:28N 48°23' W 004°29'0 0.0
2018-Jul-15 19:58N 48°23' W 004°29'0 0.0
2018-Jul-15 19:28N 48°23' W 004°29'0 0.0
2018-Jul-15 18:58N 48°23' W 004°29'0 0.0
2018-Jul-15 18:28N 48°23' W 004°29'0 0.0
2018-Jul-15 17:59N 48°23' W 004°29'0 0.0
2018-Jul-15 17:28N 48°23' W 004°29'0 0.0
2018-Jul-15 16:58N 48°23' W 004°29'0 0.0
2018-Jul-15 16:28N 48°23' W 004°29'0 0.0
2018-Jul-15 15:58N 48°23' W 004°29'0 0.0
2018-Jul-15 15:28N 48°23' W 004°29'0 0.0
2018-Jul-15 14:59N 48°23' W 004°29'0 0.0
2018-Jul-15 14:28N 48°23' W 004°29'0 0.0
2018-Jul-15 13:58N 48°23' W 004°29'0 0.0
2018-Jul-15 13:28N 48°23' W 004°29'0 0.0
2018-Jul-15 12:58N 48°23' W 004°29'0 0.0
2018-Jul-15 12:28N 48°23' W 004°29'0 0.0
2018-Jul-15 11:58N 48°23' W 004°29'0 0.0
2018-Jul-15 11:28N 48°23' W 004°29'0 0.0
2018-Jul-15 10:58N 48°23' W 004°29'0 0.0
2018-Jul-15 10:28N 48°23' W 004°29'0 0.0
2018-Jul-15 09:58N 48°23' W 004°29'0 0.0
2018-Jul-15 09:28N 48°23' W 004°29'0 0.0
2018-Jul-15 08:58N 48°23' W 004°29'0 0.0
2018-Jul-15 08:28N 48°23' W 004°29'0 0.0
2018-Jul-15 07:58N 48°23' W 004°29'0 0.0
2018-Jul-15 07:28N 48°23' W 004°29'0 0.0
2018-Jul-15 06:58N 48°23' W 004°29'0 0.0
2018-Jul-15 06:28N 48°23' W 004°29'0 0.0
2018-Jul-15 05:58N 48°23' W 004°29'0 0.0
2018-Jul-15 05:28N 48°23' W 004°29'0 0.0
2018-Jul-15 04:58N 48°23' W 004°29'0 0.0
2018-Jul-15 04:28N 48°23' W 004°29'0 0.0
2018-Jul-15 03:58N 48°23' W 004°29'0 0.0
2018-Jul-15 03:28N 48°23' W 004°29'0 0.0
2018-Jul-15 02:58N 48°23' W 004°29'0 0.0
2018-Jul-15 02:28N 48°23' W 004°29'0 0.0
2018-Jul-15 01:58N 48°23' W 004°29'0 0.0
2018-Jul-15 01:28N 48°23' W 004°29'0 0.0
2018-Jul-15 00:58N 48°23' W 004°29'0 0.0
2018-Jul-15 00:28N 48°23' W 004°29'0 0.0
2018-Jul-14 23:58N 48°23' W 004°29'0 0.0
2018-Jul-14 23:28N 48°23' W 004°29'0 0.0
2018-Jul-14 22:58N 48°23' W 004°29'0 0.0
2018-Jul-14 22:28N 48°23' W 004°29'0 0.0
2018-Jul-14 21:58N 48°23' W 004°29'0 0.0
2018-Jul-14 21:28N 48°23' W 004°29'0 0.0
2018-Jul-14 20:58N 48°23' W 004°29'0 0.0
2018-Jul-14 20:28N 48°23' W 004°29'0 0.0
2018-Jul-14 19:58N 48°23' W 004°29'0 0.0
2018-Jul-14 19:28N 48°23' W 004°29'0 0.0
2018-Jul-14 18:58N 48°23' W 004°29'0 0.0
2018-Jul-14 18:28N 48°23' W 004°29'0 0.0
2018-Jul-14 17:58N 48°23' W 004°29'0 0.0
2018-Jul-14 17:28N 48°23' W 004°29'0 0.0
2018-Jul-14 16:58N 48°23' W 004°29'0 0.0
2018-Jul-14 16:28N 48°23' W 004°29'0 0.0
2018-Jul-14 15:58N 48°23' W 004°29'0 0.0
2018-Jul-14 15:28N 48°23' W 004°29'0 0.0
2018-Jul-14 14:58N 48°23' W 004°29'0 0.0
2018-Jul-14 14:28N 48°23' W 004°29'0 0.0
2018-Jul-14 13:28N 48°23' W 004°29'0 0.0
2018-Jul-14 12:58N 48°23' W 004°29'0 0.0
2018-Jul-14 12:28N 48°23' W 004°29'0 0.0
2018-Jul-14 11:58N 48°23' W 004°29'0 0.0
2018-Jul-14 11:28N 48°23' W 004°29'0 0.0
2018-Jul-14 10:58N 48°23' W 004°29'0 0.0
2018-Jul-14 10:28N 48°23' W 004°29'0 0.0
2018-Jul-14 09:58N 48°23' W 004°29'0 0.0
2018-Jul-14 09:28N 48°23' W 004°29'0 0.0
2018-Jul-14 08:58N 48°23' W 004°29'0 0.0
2018-Jul-14 08:28N 48°23' W 004°29'0 0.0
2018-Jul-14 07:58N 48°23' W 004°29'0 0.0
2018-Jul-14 07:28N 48°23' W 004°29'0 0.0
2018-Jul-14 06:58N 48°23' W 004°29'0 0.0
2018-Jul-14 06:28N 48°23' W 004°29'0 0.0
2018-Jul-14 05:58N 48°23' W 004°29'0 0.0
2018-Jul-14 05:28N 48°23' W 004°29'0 0.0
2018-Jul-14 04:58N 48°23' W 004°29'0 0.0
2018-Jul-14 04:28N 48°23' W 004°29'0 0.0
2018-Jul-14 03:58N 48°23' W 004°29'0 0.0
2018-Jul-14 03:28N 48°23' W 004°29'0 0.0
2018-Jul-14 02:58N 48°23' W 004°29'0 0.0
2018-Jul-14 02:28N 48°23' W 004°29'0 0.0
2018-Jul-14 01:58N 48°23' W 004°29'0 0.0
2018-Jul-14 01:28N 48°23' W 004°29'0 0.0
2018-Jul-14 00:58N 48°23' W 004°29'0 0.0
2018-Jul-14 00:28N 48°23' W 004°29'0 0.0
2018-Jul-13 23:58N 48°23' W 004°29'0 0.0
2018-Jul-13 23:28N 48°23' W 004°29'0 0.0
2018-Jul-13 22:58N 48°23' W 004°29'0 0.0
2018-Jul-13 22:28N 48°23' W 004°29'0 0.0
2018-Jul-13 21:58N 48°23' W 004°29'0 0.0
2018-Jul-13 21:28N 48°23' W 004°29'0 0.0
2018-Jul-13 20:58N 48°23' W 004°29'0 0.0
2018-Jul-13 20:28N 48°23' W 004°29'0 0.0
2018-Jul-13 19:58N 48°23' W 004°29'0 0.0
2018-Jul-13 19:28N 48°23' W 004°29'0 0.0
2018-Jul-13 18:58N 48°23' W 004°29'0 0.0
2018-Jul-13 18:28N 48°23' W 004°29'0 0.0
2018-Jul-13 17:58N 48°23' W 004°29'0 0.0
2018-Jul-13 17:28N 48°23' W 004°29'0 0.0
2018-Jul-13 17:00N 48°23' W 004°29'0 0.0
2018-Jul-13 16:30N 48°23' W 004°29'1 1.9
2018-Jul-13 16:00N 48°22' W 004°29'510.1
2018-Jul-13 15:30N 48°20' W 004°36'1 2.0
2018-Jul-13 15:00N 48°19' W 004°37'1 1.1
2018-Jul-13 14:30N 48°19' W 004°38'1 0.5
2018-Jul-13 13:30N 48°20' W 004°37'0 0.0
2018-Jul-13 10:37N 48°20' W 004°37'0 1.2
2018-Jul-13 10:30N 48°20' W 004°37'1 2.8
2018-Jul-13 10:00N 48°19' W 004°39'1 1.9
2018-Jul-13 09:30N 48°18' W 004°38'0 0.4
2018-Jul-13 09:01N 48°18' W 004°38'0 0.3
2018-Jul-13 08:30N 48°18' W 004°38'1 1.4
2018-Jul-13 08:00N 48°18' W 004°38'0 0.7
2018-Jul-13 07:30N 48°17' W 004°39'2 5.0
2018-Jul-13 07:00N 48°19' W 004°36'5 9.8
2018-Jul-13 06:30N 48°22' W 004°30'1 2.6
2018-Jul-13 05:59N 48°23' W 004°29'0 0.0
2018-Jul-13 05:28N 48°23' W 004°29'0 0.0
2018-Jul-13 04:59N 48°23' W 004°29'0 0.0
2018-Jul-13 04:29N 48°23' W 004°29'0 0.0
2018-Jul-13 03:59N 48°23' W 004°29'0 0.0
2018-Jul-13 03:28N 48°23' W 004°29'0 0.0
2018-Jul-13 02:59N 48°23' W 004°29'0 0.0
2018-Jul-13 02:29N 48°23' W 004°29'0 0.0
2018-Jul-13 01:59N 48°23' W 004°29'0 0.0
2018-Jul-13 01:29N 48°23' W 004°29'0 0.0
2018-Jul-13 00:59N 48°23' W 004°29'0 0.0
2018-Jul-13 00:29N 48°23' W 004°29'0 0.0
2018-Jul-12 23:59N 48°23' W 004°29'0 0.0
2018-Jul-12 23:28N 48°23' W 004°29'0 0.0
2018-Jul-12 22:59N 48°23' W 004°29'0 0.0
2018-Jul-12 22:28N 48°23' W 004°29'0 0.0
2018-Jul-12 21:58N 48°23' W 004°29'0 0.0
2018-Jul-12 21:28N 48°23' W 004°29'0 0.0
2018-Jul-12 20:58N 48°23' W 004°29'0 0.0
2018-Jul-12 20:28N 48°23' W 004°29'0 0.0
2018-Jul-12 19:59N 48°23' W 004°29'0 0.0
2018-Jul-12 19:28N 48°23' W 004°29'0 0.0
2018-Jul-12 18:58N 48°23' W 004°29'0 0.0
2018-Jul-12 18:29N 48°23' W 004°29'0 0.0
2018-Jul-12 17:59N 48°23' W 004°29'0 0.0
2018-Jul-12 17:29N 48°23' W 004°29'0 0.0
2018-Jul-12 16:58N 48°23' W 004°29'1 2.7
2018-Jul-12 16:30N 48°22' W 004°30'4 8.6
2018-Jul-12 16:01N 48°20' W 004°36'1 1.9
2018-Jul-12 15:30N 48°19' W 004°37'0 1.0
2018-Jul-12 15:01N 48°20' W 004°36'1 1.3
2018-Jul-12 14:31N 48°19' W 004°37'1 1.8
2018-Jul-12 14:00N 48°20' W 004°36'0 0.1
2018-Jul-12 10:09N 48°20' W 004°36'0 3.1
2018-Jul-12 10:00N 48°20' W 004°35'2 4.0
2018-Jul-12 09:31N 48°19' W 004°38'2 3.7
2018-Jul-12 09:01N 48°20' W 004°35'2 3.9
2018-Jul-12 08:31N 48°19' W 004°38'2 4.1
2018-Jul-12 08:00N 48°20' W 004°35'2 3.2
2018-Jul-12 07:30N 48°19' W 004°37'1 2.1
2018-Jul-12 07:00N 48°20' W 004°37'4 8.3
2018-Jul-12 06:31N 48°22' W 004°31'2 3.5
2018-Jul-12 05:59N 48°23' W 004°29'0 0.0
2018-Jul-12 05:29N 48°23' W 004°29'0 0.0
2018-Jul-12 04:59N 48°23' W 004°29'0 0.0
2018-Jul-12 04:29N 48°23' W 004°29'0 0.0
2018-Jul-12 03:59N 48°23' W 004°29'0 0.0
2018-Jul-12 03:29N 48°23' W 004°29'0 0.0
2018-Jul-12 02:59N 48°23' W 004°29'0 0.0
2018-Jul-12 02:29N 48°23' W 004°29'0 0.0
2018-Jul-12 01:59N 48°23' W 004°29'0 0.0
2018-Jul-12 01:29N 48°23' W 004°29'0 0.0
2018-Jul-12 00:59N 48°23' W 004°29'0 0.0
2018-Jul-12 00:29N 48°23' W 004°29'0 0.0
2018-Jul-11 23:59N 48°23' W 004°29'0 0.0
2018-Jul-11 23:29N 48°23' W 004°29'0 0.0
2018-Jul-11 22:59N 48°23' W 004°29'0 0.0
2018-Jul-11 22:29N 48°23' W 004°29'0 0.0
2018-Jul-11 21:59N 48°23' W 004°29'0 0.0
2018-Jul-11 21:29N 48°23' W 004°29'0 0.0
2018-Jul-11 20:59N 48°23' W 004°29'0 0.0
2018-Jul-11 20:29N 48°23' W 004°29'0 0.0
2018-Jul-11 19:59N 48°23' W 004°29'0 0.0
2018-Jul-11 19:29N 48°23' W 004°29'0 0.0
2018-Jul-11 18:59N 48°23' W 004°29'0 0.0
2018-Jul-11 18:29N 48°23' W 004°29'0 0.0
2018-Jul-11 17:59N 48°23' W 004°29'0 0.0
2018-Jul-11 17:30N 48°23' W 004°29'0 0.0
2018-Jul-11 17:00N 48°23' W 004°29'1 2.9
2018-Jul-11 16:30N 48°22' W 004°30'3 6.6
2018-Jul-11 16:00N 48°21' W 004°35'3 6.9
2018-Jul-11 15:30N 48°18' W 004°39'0 0.4
2018-Jul-11 15:00N 48°19' W 004°39'2 4.0
2018-Jul-11 14:30N 48°20' W 004°37'0 0.0
2018-Jul-11 14:00N 48°20' W 004°37'0 0.4
2018-Jul-11 13:30N 48°20' W 004°36'0 0.1
2018-Jul-11 13:01N 48°20' W 004°36'0 0.4
2018-Jul-11 12:30N 48°20' W 004°36'2 3.2
2018-Jul-11 12:00N 48°19' W 004°38'1 0.2
2018-Jul-11 09:33N 48°19' W 004°38'0 0.2
2018-Jul-11 09:30N 48°19' W 004°38'0 0.8
2018-Jul-11 09:00N 48°19' W 004°38'1 1.1
2018-Jul-11 08:30N 48°20' W 004°38'0 0.7
2018-Jul-11 08:00N 48°19' W 004°38'1 2.0
2018-Jul-11 07:30N 48°20' W 004°37'4 8.5
2018-Jul-11 07:00N 48°22' W 004°31'2 3.8
2018-Jul-11 06:30N 48°23' W 004°29'0 0.0
2018-Jul-11 06:00N 48°23' W 004°29'0 0.0
2018-Jul-11 05:30N 48°23' W 004°29'0 0.0
2018-Jul-11 05:00N 48°23' W 004°29'0 0.0
2018-Jul-11 04:30N 48°23' W 004°29'0 0.0
2018-Jul-11 04:00N 48°23' W 004°29'0 0.0
2018-Jul-11 03:30N 48°23' W 004°29'0 0.0
2018-Jul-11 03:00N 48°23' W 004°29'0 0.0
2018-Jul-11 02:30N 48°23' W 004°29'0 0.0
2018-Jul-11 02:00N 48°23' W 004°29'0 0.0
2018-Jul-11 01:30N 48°23' W 004°29'0 0.0
2018-Jul-11 01:00N 48°23' W 004°29'0 0.0
2018-Jul-11 00:30N 48°23' W 004°29'0 0.0
2018-Jul-11 00:00N 48°23' W 004°29'0 0.0
2018-Jul-10 23:30N 48°23' W 004°29'0 0.0
2018-Jul-10 23:00N 48°23' W 004°29'0 0.0
2018-Jul-10 22:30N 48°23' W 004°29'0 0.0
2018-Jul-10 22:00N 48°23' W 004°29'0 0.0
2018-Jul-10 21:30N 48°23' W 004°29'0 0.0
2018-Jul-10 20:59N 48°23' W 004°29'0 0.0
2018-Jul-10 20:29N 48°23' W 004°29'0 0.0
2018-Jul-10 20:00N 48°23' W 004°29'0 0.0
2018-Jul-10 19:29N 48°23' W 004°29'0 0.0
2018-Jul-10 19:00N 48°23' W 004°29'0 0.0
2018-Jul-10 18:29N 48°23' W 004°29'0 0.0
2018-Jul-10 17:59N 48°23' W 004°29'0 0.0
2018-Jul-10 17:30N 48°23' W 004°29'0 0.5
2018-Jul-10 17:00N 48°23' W 004°29'4 7.6
2018-Jul-10 16:30N 48°21' W 004°34'3 5.7
2018-Jul-10 16:00N 48°20' W 004°38'0 0.7
2018-Jul-10 15:30N 48°19' W 004°38'0 0.4
2018-Jul-10 15:00N 48°19' W 004°38'0 0.7
2018-Jul-10 14:30N 48°19' W 004°38'1 1.6
2018-Jul-10 14:00N 48°20' W 004°38'1 1.4
2018-Jul-10 13:30N 48°19' W 004°38'0 0.7
2018-Jul-10 13:00N 48°20' W 004°38'0 0.1
2018-Jul-10 12:30N 48°20' W 004°38'0 0.9
2018-Jul-10 12:00N 48°19' W 004°38'0 0.6
2018-Jul-10 11:30N 48°19' W 004°38'0 0.4
2018-Jul-10 11:00N 48°19' W 004°38'  

Dump ship's entire track history